sensor_id;sensor_type;location;lat;lon;timestamp;P1;durP1;ratioP1;P2;durP2;ratioP2
71637;SDS011;59485;43.542;-5.676;2024-02-16T07:09:35;15.30;;;9.35;;
71637;SDS011;59485;43.542;-5.676;2024-02-16T07:14:49;18.35;;;8.88;;
71637;SDS011;59485;43.542;-5.676;2024-02-16T07:17:15;16.63;;;14.90;;
71637;SDS011;59485;43.542;-5.676;2024-02-16T07:22:12;21.27;;;12.75;;
71637;SDS011;59485;43.542;-5.676;2024-02-16T07:27:08;20.77;;;18.38;;
71637;SDS011;59485;43.542;-5.676;2024-02-16T07:29:34;16.23;;;9.40;;
71637;SDS011;59485;43.542;-5.676;2024-02-16T07:32:10;13.43;;;8.75;;
71637;SDS011;59485;43.542;-5.676;2024-02-16T07:34:35;16.33;;;9.32;;
71637;SDS011;59485;43.542;-5.676;2024-02-16T07:37:01;12.27;;;8.50;;
71637;SDS011;59485;43.542;-5.676;2024-02-16T07:39:26;12.27;;;8.77;;
71637;SDS011;59485;43.542;-5.676;2024-02-16T07:41:52;24.33;;;22.03;;
71637;SDS011;59485;43.542;-5.676;2024-02-16T07:44:17;14.17;;;8.87;;
71637;SDS011;59485;43.542;-5.676;2024-02-16T07:46:43;19.65;;;8.63;;
71637;SDS011;59485;43.542;-5.676;2024-02-16T07:49:08;11.77;;;8.77;;
71637;SDS011;59485;43.542;-5.676;2024-02-16T07:51:36;14.43;;;8.35;;
71637;SDS011;59485;43.542;-5.676;2024-02-16T07:54:02;12.40;;;7.10;;
71637;SDS011;59485;43.542;-5.676;2024-02-16T07:56:28;21.67;;;19.63;;
71637;SDS011;59485;43.542;-5.676;2024-02-16T07:58:55;13.07;;;8.65;;
71637;SDS011;59485;43.542;-5.676;2024-02-16T08:01:21;14.73;;;7.78;;
71637;SDS011;59485;43.542;-5.676;2024-02-16T08:03:46;19.40;;;8.47;;
71637;SDS011;59485;43.542;-5.676;2024-02-16T08:06:13;21.15;;;19.33;;
71637;SDS011;59485;43.542;-5.676;2024-02-16T08:08:41;15.03;;;8.43;;
71637;SDS011;59485;43.542;-5.676;2024-02-16T08:11:07;19.48;;;11.10;;
71637;SDS011;59485;43.542;-5.676;2024-02-16T08:13:35;25.73;;;10.13;;
71637;SDS011;59485;43.542;-5.676;2024-02-16T08:16:01;19.17;;;10.18;;
71637;SDS011;59485;43.542;-5.676;2024-02-16T08:18:32;23.23;;;12.10;;
71637;SDS011;59485;43.542;-5.676;2024-02-16T08:23:26;18.20;;;10.60;;
71637;SDS011;59485;43.542;-5.676;2024-02-16T08:25:57;17.90;;;11.75;;
71637;SDS011;59485;43.542;-5.676;2024-02-16T08:28:29;23.40;;;12.67;;
71637;SDS011;59485;43.542;-5.676;2024-02-16T08:30:54;23.98;;;12.95;;
71637;SDS011;59485;43.542;-5.676;2024-02-16T08:33:23;35.13;;;18.55;;
71637;SDS011;59485;43.542;-5.676;2024-02-16T08:38:13;23.13;;;16.85;;
71637;SDS011;59485;43.542;-5.676;2024-02-16T08:40:42;26.35;;;16.45;;
71637;SDS011;59485;43.542;-5.676;2024-02-16T08:43:08;30.83;;;18.03;;
71637;SDS011;59485;43.542;-5.676;2024-02-16T08:45:33;27.52;;;17.70;;
71637;SDS011;59485;43.542;-5.676;2024-02-16T08:47:59;31.70;;;18.75;;
71637;SDS011;59485;43.542;-5.676;2024-02-16T08:50:27;26.23;;;17.43;;
71637;SDS011;59485;43.542;-5.676;2024-02-16T08:52:52;32.17;;;25.65;;
71637;SDS011;59485;43.542;-5.676;2024-02-16T08:55:19;30.57;;;17.63;;
71637;SDS011;59485;43.542;-5.676;2024-02-16T08:57:45;27.33;;;17.25;;
71637;SDS011;59485;43.542;-5.676;2024-02-16T09:00:10;22.80;;;16.60;;
71637;SDS011;59485;43.542;-5.676;2024-02-16T09:02:37;24.17;;;17.08;;
71637;SDS011;59485;43.542;-5.676;2024-02-16T09:05:03;28.92;;;18.02;;
71637;SDS011;59485;43.542;-5.676;2024-02-16T09:07:29;29.55;;;17.50;;
71637;SDS011;59485;43.542;-5.676;2024-02-16T09:09:55;24.50;;;14.77;;
71637;SDS011;59485;43.542;-5.676;2024-02-16T09:12:21;25.23;;;18.92;;
71637;SDS011;59485;43.542;-5.676;2024-02-16T09:14:47;20.20;;;13.88;;
71637;SDS011;59485;43.542;-5.676;2024-02-16T09:17:13;20.38;;;14.10;;
71637;SDS011;59485;43.542;-5.676;2024-02-16T09:19:39;17.87;;;13.07;;
71637;SDS011;59485;43.542;-5.676;2024-02-16T09:22:05;23.13;;;13.60;;
71637;SDS011;59485;43.542;-5.676;2024-02-16T09:24:31;20.33;;;13.43;;
71637;SDS011;59485;43.542;-5.676;2024-02-16T09:26:57;22.93;;;12.43;;
71637;SDS011;59485;43.542;-5.676;2024-02-16T09:29:30;19.30;;;15.60;;
71637;SDS011;59485;43.542;-5.676;2024-02-16T09:31:55;21.75;;;13.82;;
71637;SDS011;59485;43.542;-5.676;2024-02-16T09:34:21;26.20;;;14.73;;
71637;SDS011;59485;43.542;-5.676;2024-02-16T09:36:47;26.42;;;16.48;;
71637;SDS011;59485;43.542;-5.676;2024-02-16T09:39:12;29.33;;;16.93;;
71637;SDS011;59485;43.542;-5.676;2024-02-16T09:41:39;24.67;;;15.70;;
71637;SDS011;59485;43.542;-5.676;2024-02-16T09:44:08;27.50;;;16.92;;
71637;SDS011;59485;43.542;-5.676;2024-02-16T09:46:35;24.20;;;15.40;;
71637;SDS011;59485;43.542;-5.676;2024-02-16T09:49:01;19.98;;;14.43;;
71637;SDS011;59485;43.542;-5.676;2024-02-16T09:51:36;21.73;;;14.70;;
71637;SDS011;59485;43.542;-5.676;2024-02-16T09:54:03;29.13;;;25.88;;
71637;SDS011;59485;43.542;-5.676;2024-02-16T09:56:29;21.85;;;15.70;;
71637;SDS011;59485;43.542;-5.676;2024-02-16T09:58:54;19.87;;;12.13;;
71637;SDS011;59485;43.542;-5.676;2024-02-16T10:01:21;16.85;;;11.52;;
71637;SDS011;59485;43.542;-5.676;2024-02-16T10:03:50;16.40;;;9.63;;
71637;SDS011;59485;43.542;-5.676;2024-02-16T10:06:16;16.77;;;10.00;;
71637;SDS011;59485;43.542;-5.676;2024-02-16T10:08:52;13.20;;;9.25;;
71637;SDS011;59485;43.542;-5.676;2024-02-16T10:11:25;12.63;;;9.10;;
71637;SDS011;59485;43.542;-5.676;2024-02-16T10:13:58;14.65;;;10.00;;
71637;SDS011;59485;43.542;-5.676;2024-02-16T10:16:24;16.80;;;10.67;;
71637;SDS011;59485;43.542;-5.676;2024-02-16T10:18:50;13.57;;;9.50;;
71637;SDS011;59485;43.542;-5.676;2024-02-16T10:21:28;19.05;;;16.30;;
71637;SDS011;59485;43.542;-5.676;2024-02-16T10:26:22;14.35;;;9.93;;
71637;SDS011;59485;43.542;-5.676;2024-02-16T10:28:49;15.30;;;9.73;;
71637;SDS011;59485;43.542;-5.676;2024-02-16T10:31:19;14.65;;;9.07;;
71637;SDS011;59485;43.542;-5.676;2024-02-16T10:33:54;12.52;;;9.70;;
71637;SDS011;59485;43.542;-5.676;2024-02-16T10:36:24;14.18;;;10.38;;
71637;SDS011;59485;43.542;-5.676;2024-02-16T10:38:51;13.00;;;10.45;;
71637;SDS011;59485;43.542;-5.676;2024-02-16T10:41:18;12.97;;;9.90;;
71637;SDS011;59485;43.542;-5.676;2024-02-16T10:43:46;14.48;;;11.23;;
71637;SDS011;59485;43.542;-5.676;2024-02-16T10:46:15;19.33;;;9.70;;
71637;SDS011;59485;43.542;-5.676;2024-02-16T10:48:41;16.80;;;10.15;;
71637;SDS011;59485;43.542;-5.676;2024-02-16T10:51:07;14.07;;;10.13;;
71637;SDS011;59485;43.542;-5.676;2024-02-16T10:53:34;14.80;;;9.50;;
71637;SDS011;59485;43.542;-5.676;2024-02-16T10:56:01;12.23;;;10.27;;
71637;SDS011;59485;43.542;-5.676;2024-02-16T10:58:27;22.40;;;20.13;;
71637;SDS011;59485;43.542;-5.676;2024-02-16T11:00:54;15.37;;;10.33;;
71637;SDS011;59485;43.542;-5.676;2024-02-16T11:03:26;14.23;;;12.05;;
71637;SDS011;59485;43.542;-5.676;2024-02-16T11:05:53;15.05;;;9.88;;
71637;SDS011;59485;43.542;-5.676;2024-02-16T11:08:25;14.40;;;9.40;;
71637;SDS011;59485;43.542;-5.676;2024-02-16T11:10:59;18.45;;;9.95;;
71637;SDS011;59485;43.542;-5.676;2024-02-16T11:13:34;18.70;;;10.07;;
71637;SDS011;59485;43.542;-5.676;2024-02-16T11:16:08;18.83;;;16.02;;
71637;SDS011;59485;43.542;-5.676;2024-02-16T11:18:38;16.10;;;11.50;;
71637;SDS011;59485;43.542;-5.676;2024-02-16T11:21:11;17.23;;;9.55;;
71637;SDS011;59485;43.542;-5.676;2024-02-16T11:23:37;17.40;;;9.90;;
71637;SDS011;59485;43.542;-5.676;2024-02-16T11:26:06;13.77;;;8.50;;
71637;SDS011;59485;43.542;-5.676;2024-02-16T11:28:38;14.25;;;8.95;;
71637;SDS011;59485;43.542;-5.676;2024-02-16T11:31:06;14.38;;;8.65;;
71637;SDS011;59485;43.542;-5.676;2024-02-16T11:33:32;11.93;;;8.35;;
71637;SDS011;59485;43.542;-5.676;2024-02-16T11:36:05;10.90;;;8.18;;
71637;SDS011;59485;43.542;-5.676;2024-02-16T11:38:33;11.23;;;8.23;;
71637;SDS011;59485;43.542;-5.676;2024-02-16T11:43:42;10.68;;;8.30;;
71637;SDS011;59485;43.542;-5.676;2024-02-16T11:46:14;12.77;;;8.93;;
71637;SDS011;59485;43.542;-5.676;2024-02-16T11:48:41;9.18;;;8.27;;
71637;SDS011;59485;43.542;-5.676;2024-02-16T11:51:07;13.77;;;8.90;;
71637;SDS011;59485;43.542;-5.676;2024-02-16T11:53:33;11.80;;;8.32;;
71637;SDS011;59485;43.542;-5.676;2024-02-16T11:55:59;10.18;;;8.23;;
71637;SDS011;59485;43.542;-5.676;2024-02-16T12:00:59;12.20;;;8.77;;
71637;SDS011;59485;43.542;-5.676;2024-02-16T12:03:34;17.20;;;12.18;;
71637;SDS011;59485;43.542;-5.676;2024-02-16T12:06:08;12.65;;;7.57;;
71637;SDS011;59485;43.542;-5.676;2024-02-16T12:08:34;20.40;;;17.80;;
71637;SDS011;59485;43.542;-5.676;2024-02-16T12:11:00;16.15;;;8.15;;
71637;SDS011;59485;43.542;-5.676;2024-02-16T12:13:27;13.00;;;8.32;;
71637;SDS011;59485;43.542;-5.676;2024-02-16T12:15:52;12.10;;;7.00;;
71637;SDS011;59485;43.542;-5.676;2024-02-16T12:18:24;12.13;;;8.10;;
71637;SDS011;59485;43.542;-5.676;2024-02-16T12:20:57;13.35;;;12.07;;
71637;SDS011;59485;43.542;-5.676;2024-02-16T12:23:27;10.23;;;7.70;;
71637;SDS011;59485;43.542;-5.676;2024-02-16T12:26:09;10.80;;;7.15;;
71637;SDS011;59485;43.542;-5.676;2024-02-16T12:28:34;12.70;;;7.63;;
71637;SDS011;59485;43.542;-5.676;2024-02-16T12:31:01;13.93;;;8.05;;
71637;SDS011;59485;43.542;-5.676;2024-02-16T12:33:27;11.55;;;9.27;;
71637;SDS011;59485;43.542;-5.676;2024-02-16T12:35:53;13.30;;;7.73;;
71637;SDS011;59485;43.542;-5.676;2024-02-16T12:38:19;10.38;;;7.65;;
71637;SDS011;59485;43.542;-5.676;2024-02-16T12:40:45;14.77;;;8.30;;
71637;SDS011;59485;43.542;-5.676;2024-02-16T12:43:11;10.60;;;7.93;;
71637;SDS011;59485;43.542;-5.676;2024-02-16T12:45:38;13.47;;;9.33;;
71637;SDS011;59485;43.542;-5.676;2024-02-16T12:48:10;13.05;;;9.02;;
71637;SDS011;59485;43.542;-5.676;2024-02-16T12:50:38;14.02;;;10.13;;
71637;SDS011;59485;43.542;-5.676;2024-02-16T12:53:04;15.75;;;9.25;;
71637;SDS011;59485;43.542;-5.676;2024-02-16T12:55:30;10.07;;;7.17;;
71637;SDS011;59485;43.542;-5.676;2024-02-16T12:57:56;14.68;;;8.07;;
71637;SDS011;59485;43.542;-5.676;2024-02-16T13:00:22;12.35;;;8.13;;
71637;SDS011;59485;43.542;-5.676;2024-02-16T13:02:47;9.67;;;7.30;;
71637;SDS011;59485;43.542;-5.676;2024-02-16T13:05:13;13.17;;;7.53;;
71637;SDS011;59485;43.542;-5.676;2024-02-16T13:07:38;9.47;;;7.90;;
71637;SDS011;59485;43.542;-5.676;2024-02-16T13:10:06;13.33;;;8.50;;
71637;SDS011;59485;43.542;-5.676;2024-02-16T13:12:33;13.52;;;11.95;;
71637;SDS011;59485;43.542;-5.676;2024-02-16T13:14:58;13.23;;;8.67;;
71637;SDS011;59485;43.542;-5.676;2024-02-16T13:17:24;11.43;;;7.80;;
71637;SDS011;59485;43.542;-5.676;2024-02-16T13:19:51;23.70;;;21.65;;
71637;SDS011;59485;43.542;-5.676;2024-02-16T13:22:17;11.73;;;8.45;;
71637;SDS011;59485;43.542;-5.676;2024-02-16T13:24:43;14.03;;;12.47;;
71637;SDS011;59485;43.542;-5.676;2024-02-16T13:27:09;9.52;;;7.20;;
71637;SDS011;59485;43.542;-5.676;2024-02-16T13:29:35;9.10;;;7.50;;
71637;SDS011;59485;43.542;-5.676;2024-02-16T13:32:00;9.90;;;7.87;;
71637;SDS011;59485;43.542;-5.676;2024-02-16T13:34:28;9.23;;;8.32;;
71637;SDS011;59485;43.542;-5.676;2024-02-16T13:36:55;20.45;;;18.75;;
71637;SDS011;59485;43.542;-5.676;2024-02-16T13:39:21;9.40;;;8.13;;
71637;SDS011;59485;43.542;-5.676;2024-02-16T13:41:48;13.57;;;9.25;;
71637;SDS011;59485;43.542;-5.676;2024-02-16T13:44:16;13.50;;;8.25;;
71637;SDS011;59485;43.542;-5.676;2024-02-16T13:46:42;10.43;;;8.10;;
71637;SDS011;59485;43.542;-5.676;2024-02-16T13:49:12;10.80;;;7.77;;
71637;SDS011;59485;43.542;-5.676;2024-02-16T13:54:09;13.00;;;7.78;;
71637;SDS011;59485;43.542;-5.676;2024-02-16T13:56:46;10.40;;;7.40;;
71637;SDS011;59485;43.542;-5.676;2024-02-16T13:59:11;16.67;;;11.90;;
71637;SDS011;59485;43.542;-5.676;2024-02-16T14:01:37;9.70;;;7.53;;
71637;SDS011;59485;43.542;-5.676;2024-02-16T14:04:06;12.87;;;8.37;;
71637;SDS011;59485;43.542;-5.676;2024-02-16T14:06:31;14.63;;;13.35;;
71637;SDS011;59485;43.542;-5.676;2024-02-16T14:08:57;9.67;;;8.33;;
71637;SDS011;59485;43.542;-5.676;2024-02-16T14:11:22;11.75;;;8.57;;
71637;SDS011;59485;43.542;-5.676;2024-02-16T14:13:50;13.03;;;8.73;;
71637;SDS011;59485;43.542;-5.676;2024-02-16T14:16:16;24.25;;;13.05;;
71637;SDS011;59485;43.542;-5.676;2024-02-16T14:18:41;15.60;;;13.33;;
71637;SDS011;59485;43.542;-5.676;2024-02-16T14:21:07;12.68;;;9.48;;
71637;SDS011;59485;43.542;-5.676;2024-02-16T14:23:36;13.90;;;9.95;;
71637;SDS011;59485;43.542;-5.676;2024-02-16T14:26:02;22.38;;;20.60;;
71637;SDS011;59485;43.542;-5.676;2024-02-16T14:28:27;9.87;;;8.20;;
71637;SDS011;59485;43.542;-5.676;2024-02-16T14:30:53;13.20;;;7.40;;
71637;SDS011;59485;43.542;-5.676;2024-02-16T14:33:18;15.85;;;12.00;;
71637;SDS011;59485;43.542;-5.676;2024-02-16T14:35:47;9.90;;;8.00;;
71637;SDS011;59485;43.542;-5.676;2024-02-16T14:38:14;12.47;;;9.47;;
71637;SDS011;59485;43.542;-5.676;2024-02-16T14:43:08;13.50;;;12.30;;
71637;SDS011;59485;43.542;-5.676;2024-02-16T14:45:33;12.43;;;8.20;;
71637;SDS011;59485;43.542;-5.676;2024-02-16T14:47:59;9.85;;;8.77;;
71637;SDS011;59485;43.542;-5.676;2024-02-16T14:50:24;17.70;;;16.07;;
71637;SDS011;59485;43.542;-5.676;2024-02-16T14:52:50;12.00;;;8.13;;
71637;SDS011;59485;43.542;-5.676;2024-02-16T14:55:16;11.00;;;7.20;;
71637;SDS011;59485;43.542;-5.676;2024-02-16T14:57:42;12.33;;;9.43;;
71637;SDS011;59485;43.542;-5.676;2024-02-16T15:00:09;10.27;;;9.13;;
71637;SDS011;59485;43.542;-5.676;2024-02-16T15:02:39;11.77;;;10.25;;
71637;SDS011;59485;43.542;-5.676;2024-02-16T15:05:06;12.07;;;7.60;;
71637;SDS011;59485;43.542;-5.676;2024-02-16T15:07:32;11.73;;;10.52;;
71637;SDS011;59485;43.542;-5.676;2024-02-16T15:09:58;13.83;;;7.97;;
71637;SDS011;59485;43.542;-5.676;2024-02-16T15:12:24;9.10;;;7.90;;
71637;SDS011;59485;43.542;-5.676;2024-02-16T15:14:50;13.07;;;7.97;;
71637;SDS011;59485;43.542;-5.676;2024-02-16T15:17:16;12.23;;;10.23;;
71637;SDS011;59485;43.542;-5.676;2024-02-16T15:19:48;11.93;;;9.18;;
71637;SDS011;59485;43.542;-5.676;2024-02-16T15:22:13;9.25;;;8.15;;
71637;SDS011;59485;43.542;-5.676;2024-02-16T15:24:39;11.07;;;8.77;;
71637;SDS011;59485;43.542;-5.676;2024-02-16T15:27:05;10.37;;;9.03;;
71637;SDS011;59485;43.542;-5.676;2024-02-16T15:29:31;11.90;;;8.93;;
71637;SDS011;59485;43.542;-5.676;2024-02-16T15:31:57;13.27;;;12.07;;
71637;SDS011;59485;43.542;-5.676;2024-02-16T15:34:24;10.27;;;9.07;;
71637;SDS011;59485;43.542;-5.676;2024-02-16T15:36:50;11.43;;;7.97;;
71637;SDS011;59485;43.542;-5.676;2024-02-16T15:39:16;10.20;;;8.65;;
71637;SDS011;59485;43.542;-5.676;2024-02-16T15:41:42;9.77;;;8.47;;
71637;SDS011;59485;43.542;-5.676;2024-02-16T15:44:07;10.35;;;8.75;;
71637;SDS011;59485;43.542;-5.676;2024-02-16T15:46:34;10.80;;;7.97;;
71637;SDS011;59485;43.542;-5.676;2024-02-16T15:48:59;10.48;;;9.45;;
71637;SDS011;59485;43.542;-5.676;2024-02-16T15:51:25;10.27;;;8.93;;
71637;SDS011;59485;43.542;-5.676;2024-02-16T15:56:23;10.57;;;9.57;;
71637;SDS011;59485;43.542;-5.676;2024-02-16T15:58:51;10.48;;;8.80;;
71637;SDS011;59485;43.542;-5.676;2024-02-16T16:01:24;21.80;;;20.03;;
71637;SDS011;59485;43.542;-5.676;2024-02-16T16:03:53;13.27;;;11.98;;
71637;SDS011;59485;43.542;-5.676;2024-02-16T16:06:19;10.05;;;9.07;;
71637;SDS011;59485;43.542;-5.676;2024-02-16T16:08:44;9.13;;;8.23;;
71637;SDS011;59485;43.542;-5.676;2024-02-16T16:11:10;11.77;;;9.05;;
71637;SDS011;59485;43.542;-5.676;2024-02-16T16:13:36;14.68;;;13.55;;
71637;SDS011;59485;43.542;-5.676;2024-02-16T16:16:05;10.83;;;9.27;;
71637;SDS011;59485;43.542;-5.676;2024-02-16T16:18:31;14.90;;;13.48;;
71637;SDS011;59485;43.542;-5.676;2024-02-16T16:21:03;10.65;;;9.63;;
71637;SDS011;59485;43.542;-5.676;2024-02-16T16:23:30;23.38;;;21.45;;
71637;SDS011;59485;43.542;-5.676;2024-02-16T16:25:58;25.83;;;23.83;;
71637;SDS011;59485;43.542;-5.676;2024-02-16T16:28:24;10.87;;;8.97;;
71637;SDS011;59485;43.542;-5.676;2024-02-16T16:30:51;9.70;;;8.35;;
71637;SDS011;59485;43.542;-5.676;2024-02-16T16:33:16;14.27;;;8.53;;
71637;SDS011;59485;43.542;-5.676;2024-02-16T16:35:43;15.38;;;13.00;;
71637;SDS011;59485;43.542;-5.676;2024-02-16T16:38:11;10.70;;;9.73;;
71637;SDS011;59485;43.542;-5.676;2024-02-16T16:40:37;12.00;;;9.13;;
71637;SDS011;59485;43.542;-5.676;2024-02-16T16:43:03;11.70;;;8.93;;
71637;SDS011;59485;43.542;-5.676;2024-02-16T16:45:29;11.02;;;9.43;;
71637;SDS011;59485;43.542;-5.676;2024-02-16T16:47:56;23.37;;;21.33;;
71637;SDS011;59485;43.542;-5.676;2024-02-16T16:50:22;10.40;;;8.70;;
71637;SDS011;59485;43.542;-5.676;2024-02-16T16:52:48;11.60;;;8.43;;
71637;SDS011;59485;43.542;-5.676;2024-02-16T16:55:14;13.83;;;12.03;;
71637;SDS011;59485;43.542;-5.676;2024-02-16T16:57:40;24.42;;;22.65;;
71637;SDS011;59485;43.542;-5.676;2024-02-16T17:00:05;10.90;;;9.57;;
71637;SDS011;59485;43.542;-5.676;2024-02-16T17:02:31;15.57;;;14.25;;
71637;SDS011;59485;43.542;-5.676;2024-02-16T17:04:59;24.60;;;22.55;;
71637;SDS011;59485;43.542;-5.676;2024-02-16T17:07:24;9.05;;;8.15;;
71637;SDS011;59485;43.542;-5.676;2024-02-16T17:09:50;15.50;;;13.07;;
71637;SDS011;59485;43.542;-5.676;2024-02-16T17:12:21;11.70;;;8.20;;
71637;SDS011;59485;43.542;-5.676;2024-02-16T17:14:48;8.65;;;7.28;;
71637;SDS011;59485;43.542;-5.676;2024-02-16T17:17:14;9.93;;;7.97;;
71637;SDS011;59485;43.542;-5.676;2024-02-16T17:19:40;16.53;;;14.93;;
71637;SDS011;59485;43.542;-5.676;2024-02-16T17:22:05;8.97;;;7.67;;
71637;SDS011;59485;43.542;-5.676;2024-02-16T17:24:31;9.70;;;7.45;;
71637;SDS011;59485;43.542;-5.676;2024-02-16T17:26:57;9.33;;;7.73;;
71637;SDS011;59485;43.542;-5.676;2024-02-16T17:29:23;11.35;;;7.47;;
71637;SDS011;59485;43.542;-5.676;2024-02-16T17:31:49;10.10;;;7.75;;
71637;SDS011;59485;43.542;-5.676;2024-02-16T17:34:15;13.37;;;8.03;;
71637;SDS011;59485;43.542;-5.676;2024-02-16T17:36:40;11.05;;;7.88;;
71637;SDS011;59485;43.542;-5.676;2024-02-16T17:39:06;10.87;;;8.93;;
71637;SDS011;59485;43.542;-5.676;2024-02-16T17:41:33;16.38;;;11.02;;
71637;SDS011;59485;43.542;-5.676;2024-02-16T17:43:59;17.20;;;15.70;;
71637;SDS011;59485;43.542;-5.676;2024-02-16T17:46:24;10.63;;;8.93;;
71637;SDS011;59485;43.542;-5.676;2024-02-16T17:48:50;13.32;;;8.35;;
71637;SDS011;59485;43.542;-5.676;2024-02-16T17:51:16;10.57;;;7.83;;
71637;SDS011;59485;43.542;-5.676;2024-02-16T17:53:42;12.77;;;8.97;;
71637;SDS011;59485;43.542;-5.676;2024-02-16T17:56:07;9.43;;;7.47;;
71637;SDS011;59485;43.542;-5.676;2024-02-16T17:58:35;10.38;;;7.50;;
71637;SDS011;59485;43.542;-5.676;2024-02-16T18:01:01;12.10;;;7.63;;
71637;SDS011;59485;43.542;-5.676;2024-02-16T18:03:26;12.13;;;8.70;;
71637;SDS011;59485;43.542;-5.676;2024-02-16T18:05:54;13.03;;;9.30;;
71637;SDS011;59485;43.542;-5.676;2024-02-16T18:08:20;11.27;;;7.57;;
71637;SDS011;59485;43.542;-5.676;2024-02-16T18:10:46;12.23;;;7.53;;
71637;SDS011;59485;43.542;-5.676;2024-02-16T18:13:12;23.15;;;21.10;;
71637;SDS011;59485;43.542;-5.676;2024-02-16T18:15:39;21.95;;;20.08;;
71637;SDS011;59485;43.542;-5.676;2024-02-16T18:18:05;14.40;;;10.77;;
71637;SDS011;59485;43.542;-5.676;2024-02-16T18:20:31;16.00;;;12.68;;
71637;SDS011;59485;43.542;-5.676;2024-02-16T18:22:58;16.40;;;14.13;;
71637;SDS011;59485;43.542;-5.676;2024-02-16T18:25:24;13.07;;;7.65;;
71637;SDS011;59485;43.542;-5.676;2024-02-16T18:27:50;18.07;;;8.57;;
71637;SDS011;59485;43.542;-5.676;2024-02-16T18:30:16;15.90;;;9.20;;
71637;SDS011;59485;43.542;-5.676;2024-02-16T18:32:42;13.97;;;7.43;;
71637;SDS011;59485;43.542;-5.676;2024-02-16T18:35:08;11.57;;;7.95;;
71637;SDS011;59485;43.542;-5.676;2024-02-16T18:37:34;12.07;;;8.53;;
71637;SDS011;59485;43.542;-5.676;2024-02-16T18:39:59;15.82;;;12.52;;
71637;SDS011;59485;43.542;-5.676;2024-02-16T18:42:25;9.53;;;7.63;;
71637;SDS011;59485;43.542;-5.676;2024-02-16T18:44:50;9.00;;;8.03;;
71637;SDS011;59485;43.542;-5.676;2024-02-16T18:47:17;12.50;;;8.38;;
71637;SDS011;59485;43.542;-5.676;2024-02-16T18:49:43;17.60;;;13.68;;
71637;SDS011;59485;43.542;-5.676;2024-02-16T18:52:08;12.17;;;8.37;;
71637;SDS011;59485;43.542;-5.676;2024-02-16T18:54:34;12.63;;;7.40;;
71637;SDS011;59485;43.542;-5.676;2024-02-16T18:57:00;12.03;;;8.23;;
71637;SDS011;59485;43.542;-5.676;2024-02-16T18:59:25;11.02;;;9.77;;
71637;SDS011;59485;43.542;-5.676;2024-02-16T19:01:51;12.57;;;10.17;;
71637;SDS011;59485;43.542;-5.676;2024-02-16T19:04:18;10.80;;;8.40;;
71637;SDS011;59485;43.542;-5.676;2024-02-16T19:06:44;13.00;;;8.43;;
71637;SDS011;59485;43.542;-5.676;2024-02-16T19:09:09;11.02;;;8.20;;
71637;SDS011;59485;43.542;-5.676;2024-02-16T19:11:42;12.77;;;10.10;;
71637;SDS011;59485;43.542;-5.676;2024-02-16T19:14:07;18.33;;;9.80;;
71637;SDS011;59485;43.542;-5.676;2024-02-16T19:16:33;22.13;;;18.65;;
71637;SDS011;59485;43.542;-5.676;2024-02-16T19:18:58;15.13;;;9.17;;
71637;SDS011;59485;43.542;-5.676;2024-02-16T19:21:24;18.53;;;16.63;;
71637;SDS011;59485;43.542;-5.676;2024-02-16T19:23:49;14.40;;;9.65;;
71637;SDS011;59485;43.542;-5.676;2024-02-16T19:26:15;18.33;;;10.93;;
71637;SDS011;59485;43.542;-5.676;2024-02-16T19:28:41;13.73;;;10.43;;
71637;SDS011;59485;43.542;-5.676;2024-02-16T19:31:07;13.27;;;10.33;;
71637;SDS011;59485;43.542;-5.676;2024-02-16T19:33:34;17.75;;;10.43;;
71637;SDS011;59485;43.542;-5.676;2024-02-16T19:36:00;15.98;;;8.80;;
71637;SDS011;59485;43.542;-5.676;2024-02-16T19:38:28;16.45;;;10.43;;
71637;SDS011;59485;43.542;-5.676;2024-02-16T19:40:53;15.97;;;9.50;;
71637;SDS011;59485;43.542;-5.676;2024-02-16T19:43:19;16.03;;;10.90;;
71637;SDS011;59485;43.542;-5.676;2024-02-16T19:45:44;17.65;;;10.73;;
71637;SDS011;59485;43.542;-5.676;2024-02-16T19:48:11;18.47;;;10.33;;
71637;SDS011;59485;43.542;-5.676;2024-02-16T19:50:36;20.77;;;18.65;;
71637;SDS011;59485;43.542;-5.676;2024-02-16T19:53:02;20.47;;;15.07;;
71637;SDS011;59485;43.542;-5.676;2024-02-16T19:55:28;18.80;;;11.93;;
71637;SDS011;59485;43.542;-5.676;2024-02-16T19:57:54;15.20;;;10.23;;
71637;SDS011;59485;43.542;-5.676;2024-02-16T20:00:19;17.17;;;11.85;;
71637;SDS011;59485;43.542;-5.676;2024-02-16T20:02:45;29.70;;;14.70;;
71637;SDS011;59485;43.542;-5.676;2024-02-16T20:05:11;26.80;;;15.65;;
71637;SDS011;59485;43.542;-5.676;2024-02-16T20:07:37;22.83;;;14.50;;
71637;SDS011;59485;43.542;-5.676;2024-02-16T20:10:07;27.40;;;20.40;;
71637;SDS011;59485;43.542;-5.676;2024-02-16T20:12:34;33.03;;;17.92;;
71637;SDS011;59485;43.542;-5.676;2024-02-16T20:15:00;29.55;;;17.05;;
71637;SDS011;59485;43.542;-5.676;2024-02-16T20:17:25;30.80;;;17.73;;
71637;SDS011;59485;43.542;-5.676;2024-02-16T20:19:52;28.58;;;17.63;;
71637;SDS011;59485;43.542;-5.676;2024-02-16T20:22:18;29.90;;;19.25;;
71637;SDS011;59485;43.542;-5.676;2024-02-16T20:24:44;21.47;;;15.50;;
71637;SDS011;59485;43.542;-5.676;2024-02-16T20:27:09;25.95;;;15.23;;
71637;SDS011;59485;43.542;-5.676;2024-02-16T20:29:35;27.60;;;17.10;;
71637;SDS011;59485;43.542;-5.676;2024-02-16T20:32:01;25.60;;;16.13;;
71637;SDS011;59485;43.542;-5.676;2024-02-16T20:34:29;25.00;;;16.80;;
71637;SDS011;59485;43.542;-5.676;2024-02-16T20:36:55;30.40;;;22.43;;
71637;SDS011;59485;43.542;-5.676;2024-02-16T20:39:20;35.92;;;19.67;;
71637;SDS011;59485;43.542;-5.676;2024-02-16T20:41:46;34.63;;;21.60;;
71637;SDS011;59485;43.542;-5.676;2024-02-16T20:44:12;27.53;;;15.30;;
71637;SDS011;59485;43.542;-5.676;2024-02-16T20:46:37;21.17;;;13.03;;
71637;SDS011;59485;43.542;-5.676;2024-02-16T20:49:03;21.30;;;13.70;;
71637;SDS011;59485;43.542;-5.676;2024-02-16T20:51:29;24.70;;;16.98;;
71637;SDS011;59485;43.542;-5.676;2024-02-16T20:53:54;15.13;;;11.40;;
71637;SDS011;59485;43.542;-5.676;2024-02-16T20:56:23;17.23;;;10.52;;
71637;SDS011;59485;43.542;-5.676;2024-02-16T20:58:48;14.65;;;9.73;;
71637;SDS011;59485;43.542;-5.676;2024-02-16T21:01:14;14.30;;;9.73;;
71637;SDS011;59485;43.542;-5.676;2024-02-16T21:03:39;12.47;;;9.60;;
71637;SDS011;59485;43.542;-5.676;2024-02-16T21:06:05;18.52;;;11.07;;
71637;SDS011;59485;43.542;-5.676;2024-02-16T21:08:31;17.00;;;12.83;;
71637;SDS011;59485;43.542;-5.676;2024-02-16T21:10:56;19.23;;;12.47;;
71637;SDS011;59485;43.542;-5.676;2024-02-16T21:13:22;15.45;;;11.23;;
71637;SDS011;59485;43.542;-5.676;2024-02-16T21:15:47;16.57;;;11.03;;
71637;SDS011;59485;43.542;-5.676;2024-02-16T21:18:13;19.15;;;12.13;;
71637;SDS011;59485;43.542;-5.676;2024-02-16T21:20:39;18.92;;;11.57;;
71637;SDS011;59485;43.542;-5.676;2024-02-16T21:23:06;19.43;;;13.00;;
71637;SDS011;59485;43.542;-5.676;2024-02-16T21:25:32;15.98;;;11.55;;
71637;SDS011;59485;43.542;-5.676;2024-02-16T21:27:57;17.63;;;11.23;;
71637;SDS011;59485;43.542;-5.676;2024-02-16T21:30:23;16.33;;;10.10;;
71637;SDS011;59485;43.542;-5.676;2024-02-16T21:32:48;15.45;;;10.98;;
71637;SDS011;59485;43.542;-5.676;2024-02-16T21:35:16;19.87;;;10.63;;
71637;SDS011;59485;43.542;-5.676;2024-02-16T21:37:45;17.23;;;12.23;;
71637;SDS011;59485;43.542;-5.676;2024-02-16T21:40:11;20.05;;;10.15;;
71637;SDS011;59485;43.542;-5.676;2024-02-16T21:42:37;17.38;;;10.05;;
71637;SDS011;59485;43.542;-5.676;2024-02-16T21:45:03;19.13;;;11.53;;
71637;SDS011;59485;43.542;-5.676;2024-02-16T21:47:31;20.27;;;11.43;;
71637;SDS011;59485;43.542;-5.676;2024-02-16T21:49:58;18.98;;;13.85;;